Terminal Aerodrome Forecast
Issued by NWS

Home | Current Version | Previous Version | Text Only | Print | Product List | Glossary On
Versions: 1 2 3 4 5 6 7 8 9 10 11 12 13
747
FTUS42 KMLB 302339
TAFSUA
TAF
KSUA 302339Z 3100/3124 13008KT P6SM FEW035 BKN250
     FM310600 11003KT P6SM FEW020 SCT250
     FM311100 VRB02KT P6SM FEW020 SCT250
     FM311500 21009KT P6SM SCT035
     FM312000 08007KT P6SM VCTS SCT035CB BKN250=

USA.gov is the U.S. government's official web portal to all federal, state and local government web resources and services.